»·PEaware :: WAT563 KSMF-KSAN

WAT563 :: KSMF-KSAN

FLIGHT INFORMATION

Flight Status: Arrived
Operator:
Walker Air Transport
More flights by this operator :: More flights under this callsign
Pilot: Trevel L P. (20826)
Aircraft: AIRBUS A320
(A320)
More flights by this aircraft type
Origin: KSMF Sacramento Intl
United States
Destination: KSAN San Diego Intl-Lindbergh
United States
More flights between these airports :: More routes between these airports
Route: FTHIL3 FRA EHF HUULK COMIX2
File this flight plan on PilotEdge
Remarks: RMK / SIMBRIEF
Altitude:
(Current/Filed)
33,000ft
Speed:
(Current/Filed)
465kts
Departed: 20-Feb-21 09:08 AM
Arrived: 20-Feb-21 10:24 AM
Distance/Time
Traveled:
417nm/1:16
Distance/Time
To Go:
Arrived

Flight Plot

Page will automatically refresh every two minutes.

Flight plan parsing failed; only flown route is shown


Map Options




Map Legend


Flown Route
Filed Route
Departure Airport
Arrival Airport
Navaid (VOR, NDB)
Fix

Horizontal Profiles

Position Reports

Time Latitude Longitude Heading Altitude Ground
Speed
20-Feb-21 08:29 38.692565 -121.586402 0 41ft 0kts
20-Feb-21 08:30 38.692565 -121.586402 0 41ft 0kts
20-Feb-21 08:31 38.692565 -121.586402 0 41ft 0kts
20-Feb-21 08:32 38.692565 -121.586402 0 41ft 0kts
20-Feb-21 08:33 38.692565 -121.586402 0 41ft 0kts
20-Feb-21 08:34 38.692565 -121.586402 0 41ft 0kts
20-Feb-21 08:35 38.692565 -121.586402 0 41ft 0kts
20-Feb-21 08:36 38.692565 -121.586402 0 41ft 0kts
20-Feb-21 08:37 38.692565 -121.586402 0 41ft 0kts
20-Feb-21 08:38 38.692565 -121.586402 0 41ft 0kts
20-Feb-21 08:39 38.692565 -121.586402 0 41ft 0kts
20-Feb-21 08:40 38.692565 -121.586402 0 41ft 0kts
20-Feb-21 08:41 38.692565 -121.586402 0 41ft 0kts
20-Feb-21 08:42 38.692565 -121.586402 0 41ft 0kts
20-Feb-21 08:43 38.692565 -121.586402 0 41ft 0kts
20-Feb-21 08:44 38.692565 -121.586402 0 41ft 0kts
20-Feb-21 08:45 38.692565 -121.586402 0 41ft 0kts
20-Feb-21 08:46 38.692565 -121.586402 0 41ft 0kts
20-Feb-21 08:47 38.692565 -121.586402 0 41ft 0kts
20-Feb-21 08:48 38.692565 -121.586402 0 41ft 0kts
20-Feb-21 08:49 38.692565 -121.586402 0 41ft 0kts
20-Feb-21 08:50 38.692565 -121.586402 0 41ft 0kts
20-Feb-21 08:51 38.692565 -121.586402 0 41ft 0kts
20-Feb-21 08:52 38.692565 -121.586402 0 41ft 0kts
20-Feb-21 08:53 38.692565 -121.586402 0 41ft 0kts
20-Feb-21 08:54 38.692565 -121.586402 0 41ft 0kts
20-Feb-21 08:55 38.692565 -121.586402 0 41ft 0kts
20-Feb-21 08:56 38.692564 -121.586402 359 41ft 0kts
20-Feb-21 08:57 38.692024 -121.586537 118 41ft 2kts
20-Feb-21 08:58 38.692039 -121.586576 132 41ft 0kts
20-Feb-21 08:59 38.692039 -121.586576 132 41ft 0kts
20-Feb-21 09:00 38.691851 -121.584522 92 41ft 14kts
20-Feb-21 09:01 38.691970 -121.582765 50 41ft 0kts
20-Feb-21 09:02 38.691975 -121.582757 50 41ft 0kts
20-Feb-21 09:03 38.698083 -121.582787 0 41ft 23kts
20-Feb-21 09:04 38.701687 -121.582802 0 41ft 13kts
20-Feb-21 09:05 38.706629 -121.582675 28 41ft 4kts
20-Feb-21 09:06 38.707022 -121.580578 89 41ft 7kts
20-Feb-21 09:07 38.693672 -121.580336 179 76ft 173kts
20-Feb-21 09:08 38.651820 -121.557707 112 3871ft 192kts
20-Feb-21 09:09 38.621563 -121.485850 128 7163ft 263kts
20-Feb-21 09:10 38.576959 -121.400023 124 11003ft 308kts
20-Feb-21 09:11 38.523658 -121.298202 122 13815ft 377kts
20-Feb-21 09:12 38.461384 -121.179242 121 16389ft 428kts
20-Feb-21 09:13 38.392628 -121.048663 121 19026ft 455kts
20-Feb-21 09:14 38.320182 -120.911518 122 21433ft 478kts
20-Feb-21 09:16 38.244400 -120.768573 123 23545ft 498kts
20-Feb-21 09:17 38.165398 -120.620231 124 25461ft 515kts
20-Feb-21 09:18 38.083366 -120.467288 125 27204ft 530kts
20-Feb-21 09:19 37.998237 -120.311860 127 28720ft 541kts
20-Feb-21 09:20 37.896351 -120.177854 155 30580ft 522kts
20-Feb-21 09:21 37.770214 -120.087275 156 32441ft 520kts
20-Feb-21 09:22 37.646236 -119.993743 157 33385ft 517kts
20-Feb-21 09:23 37.522325 -119.902627 158 33369ft 514kts
20-Feb-21 09:24 37.399073 -119.811509 158 33403ft 511kts
20-Feb-21 09:25 37.276620 -119.721710 159 33420ft 508kts
20-Feb-21 09:26 37.154948 -119.632711 160 33408ft 505kts
20-Feb-21 09:27 37.029595 -119.570429 179 33415ft 471kts
20-Feb-21 09:28 36.902566 -119.532682 178 33365ft 471kts
20-Feb-21 09:29 36.776092 -119.492667 179 33361ft 466kts
20-Feb-21 09:30 36.650635 -119.453868 179 33397ft 463kts
20-Feb-21 09:31 36.525769 -119.415154 180 33416ft 461kts
20-Feb-21 09:32 36.401446 -119.376732 180 33404ft 459kts
20-Feb-21 09:33 36.277614 -119.338550 180 33362ft 458kts
20-Feb-21 09:34 36.153766 -119.300616 180 33340ft 458kts
20-Feb-21 09:34 36.050469 -119.268997 180 33387ft 458kts
20-Feb-21 09:36 35.906711 -119.225079 180 33435ft 455kts
20-Feb-21 09:36 35.804451 -119.194025 180 33422ft 450kts
20-Feb-21 09:37 35.683281 -119.157339 180 33375ft 447kts
20-Feb-21 09:39 35.542052 -119.114697 180 33340ft 450kts
20-Feb-21 09:39 35.441175 -119.074701 169 33354ft 473kts
20-Feb-21 09:41 35.301648 -118.994943 168 33422ft 472kts
20-Feb-21 09:41 35.201474 -118.939867 168 33391ft 472kts
20-Feb-21 09:42 35.082389 -118.873580 168 33343ft 470kts
20-Feb-21 09:43 34.963348 -118.807874 168 33291ft 468kts
20-Feb-21 09:44 34.845093 -118.742669 168 33232ft 466kts
20-Feb-21 09:45 34.726601 -118.677534 167 33205ft 467kts
20-Feb-21 09:46 34.608296 -118.612848 167 33263ft 467kts
20-Feb-21 09:47 34.493103 -118.533948 160 33315ft 478kts
20-Feb-21 09:48 34.378632 -118.452133 161 33299ft 477kts
20-Feb-21 09:49 34.263924 -118.370830 160 33301ft 476kts
20-Feb-21 09:50 34.149869 -118.290181 160 33243ft 473kts
20-Feb-21 09:51 34.036941 -118.210382 160 33195ft 468kts
20-Feb-21 09:52 33.923996 -118.131141 160 33238ft 475kts
20-Feb-21 09:53 33.812014 -118.053745 162 33267ft 473kts
20-Feb-21 09:54 33.696697 -117.977562 162 33281ft 473kts
20-Feb-21 09:55 33.582847 -117.902423 162 31559ft 462kts
20-Feb-21 09:56 33.472690 -117.828454 159 27715ft 450kts
20-Feb-21 09:57 33.375617 -117.728411 140 23811ft 470kts
20-Feb-21 09:58 33.284736 -117.616317 140 20056ft 465kts
20-Feb-21 09:59 33.184676 -117.523449 150 16486ft 453kts
20-Feb-21 10:00 33.083916 -117.439750 149 15105ft 436kts
20-Feb-21 10:01 32.989060 -117.360045 150 15205ft 380kts
20-Feb-21 10:02 32.908469 -117.292457 151 14989ft 353kts
20-Feb-21 10:03 32.823422 -117.221406 144 14994ft 385kts
20-Feb-21 10:04 32.786931 -117.103781 100 14478ft 377kts
20-Feb-21 10:05 32.753368 -116.992399 116 13443ft 332kts
20-Feb-21 10:06 32.724805 -116.883672 105 9434ft 381kts
20-Feb-21 10:07 32.696827 -116.771164 106 7226ft 316kts
20-Feb-21 10:08 32.674019 -116.679570 106 5979ft 258kts
20-Feb-21 10:09 32.654604 -116.600942 106 5988ft 246kts
20-Feb-21 10:10 32.614137 -116.545115 181 5991ft 235kts
20-Feb-21 10:11 32.578576 -116.594107 269 5995ft 217kts
20-Feb-21 10:12 32.578070 -116.665723 271 6010ft 216kts
20-Feb-21 10:13 32.577794 -116.737286 271 6019ft 217kts
20-Feb-21 10:14 32.577414 -116.808793 271 6017ft 216kts
20-Feb-21 10:15 32.580192 -116.880451 288 6021ft 217kts
20-Feb-21 10:16 32.609807 -116.940972 315 5498ft 210kts
20-Feb-21 10:17 32.665726 -116.957977 320 4845ft 211kts
20-Feb-21 10:18 32.690698 -117.013783 288 4109ft 164kts
20-Feb-21 10:19 32.703626 -117.066230 288 2725ft 160kts
20-Feb-21 10:20 32.715482 -117.114478 286 2100ft 135kts
20-Feb-21 10:21 32.725668 -117.157800 288 602ft 133kts
20-Feb-21 10:22 32.735371 -117.196929 287 31ft 83kts
20-Feb-21 10:23 32.734980 -117.201681 166 31ft 14kts
20-Feb-21 10:24 32.734047 -117.201293 164 31ft 0kts
20-Feb-21 10:25 32.734047 -117.201293 164 31ft 0kts
20-Feb-21 10:26 32.734046 -117.201293 164 31ft 0kts
20-Feb-21 10:27 32.734046 -117.201293 164 31ft 0kts
20-Feb-21 10:28 32.734046 -117.201293 164 31ft 0kts
20-Feb-21 10:29 32.734046 -117.201293 164 31ft 0kts
20-Feb-21 10:30 32.734046 -117.201293 164 31ft 0kts
20-Feb-21 10:31 32.734046 -117.201293 164 31ft 0kts
20-Feb-21 10:32 32.734046 -117.201293 164 31ft 0kts
20-Feb-21 10:33 32.734046 -117.201293 164 31ft 0kts

Navigation Log

Ident Type
Flight plan parsing failed, navigation log unavailable